Pagrindinis puslapis
METAR-TAF:

METAR-TAF

Oro uostai :

Edinburg, Teksasas, Jungtinės Amerikos Valstijos

platuma: 26-26-31N, ilguma: 098-07-46W, Aukštis: 24 m

Dabartinis oras

Ataskaita buvo paskelbta 32 minutes, ne 11:15 UTC
Vėjas 14 kt iš Šiaurės/Šiaurės Vakarų
Temperatūra 22°C
Drėgmė 88%
Slėgis 1016 hPa
Matomumas: 16.1 km
Giedras dangus

METAR: KEBG 291115Z AUTO 34014KT 10SM CLR 22/20 A2999 RMK AO2 LTG DSNT NE AND SE T02190196

Laikas: 06:47 (11:47 UTC)


TAF: trūkstamas

Orai ataskaitas ir orų prognozės (METAR, TAF).

turimą stotys yra geltonos ir raudonos taškus žemėlapyje.

Perkelti pele per norėdami pamatyti stoties vardą.

Tada spustelėkite, norėdami matyti oro stebėjimo ir prognozės.

Norėdami pakeisti žemėlapį: spustelėkite ant žalios mygtukų su juodo kryžiaus žemyn,; žalią mygtuką su brūkšneliu, jei norite nutolinti; arba žalių rodyklių gretimoms žemėlapius.


METAR-TAF: